Time;durP1;ratioP1;P1;durP2;ratioP2;P2;SDS_P1;SDS_P2;PMS_P1;PMS_P2;Temp;Humidity;BMP_temperature;BMP_pressure;BME280_temperature;BME280_humidity;BME280_pressure;Samples;Min_cycle;Max_cycle;Signal;HPM_P1;HPM_P2
2021/03/31 00:00:36;;;;;;;46.23;26.40;;;9.90;99.90;;;;;;4409571;32;20162;-75
2021/03/31 00:03:09;;;;;;;46.10;26.17;;;10.00;99.90;;;;;;4411294;32;20489;-75
2021/03/31 00:05:35;;;;;;;43.00;24.60;;;9.90;99.90;;;;;;4409219;32;20152;-75
2021/03/31 00:08:03;;;;;;;44.83;26.73;;;9.90;99.90;;;;;;4410137;32;20453;-76
2021/03/31 00:10:45;;;;;;;46.90;26.67;;;9.90;99.90;;;;;;4409174;32;20148;-75
2021/03/31 00:13:13;;;;;;;42.13;25.63;;;9.80;99.90;;;;;;4408683;32;20388;-75
2021/03/31 00:15:40;;;;;;;45.70;26.13;;;9.90;99.90;;;;;;4409701;32;20159;-75
2021/03/31 00:18:12;;;;;;;45.07;26.50;;;9.80;99.90;;;;;;4409199;32;20147;-75
2021/03/31 00:20:40;;;;;;;43.50;25.50;;;9.80;99.90;;;;;;4411259;32;20184;-75
2021/03/31 00:23:08;;;;;;;45.63;26.50;;;9.80;99.90;;;;;;4408960;32;20201;-75
2021/03/31 00:25:35;;;;;;;42.80;25.87;;;9.80;99.90;;;;;;4409572;32;20158;-75
2021/03/31 00:28:04;;;;;;;44.93;25.87;;;9.80;99.90;;;;;;4410220;32;20457;-75
2021/03/31 00:30:31;;;;;;;43.90;26.37;;;9.70;99.90;;;;;;4408845;32;20181;-75
2021/03/31 00:32:58;;;;;;;43.60;26.13;;;9.70;99.90;;;;;;4407832;32;20175;-75
2021/03/31 00:35:25;;;;;;;45.03;26.60;;;9.80;99.90;;;;;;4409229;32;20144;-75
2021/03/31 00:37:52;;;;;;;45.90;25.97;;;9.70;99.90;;;;;;4409273;32;20162;-75
2021/03/31 00:40:20;;;;;;;45.77;26.73;;;9.70;99.90;;;;;;4410644;32;20200;-75
2021/03/31 00:42:47;;;;;;;45.23;27.00;;;9.60;99.90;;;;;;4409436;32;20170;-75
2021/03/31 00:45:15;;;;;;;49.10;27.10;;;9.60;99.90;;;;;;4408710;32;20207;-75
2021/03/31 00:47:42;;;;;;;46.73;26.33;;;9.60;99.90;;;;;;4409192;32;20206;-75
2021/03/31 00:50:15;;;;;;;47.17;26.47;;;9.60;99.90;;;;;;4410438;32;20198;-75
2021/03/31 00:52:44;;;;;;;44.90;26.33;;;9.50;99.90;;;;;;4408996;32;20461;-75
2021/03/31 00:55:13;;;;;;;47.20;26.80;;;9.50;99.90;;;;;;4409152;32;20150;-76
2021/03/31 00:57:40;;;;;;;48.43;27.00;;;9.50;99.90;;;;;;4409355;32;20154;-75
2021/03/31 01:00:09;;;;;;;48.63;27.57;;;9.50;99.90;;;;;;4409755;32;20140;-76
2021/03/31 01:02:39;;;;;;;45.37;27.03;;;9.50;99.90;;;;;;4409496;32;20186;-75
2021/03/31 01:05:12;;;;;;;45.50;27.07;;;9.50;99.90;;;;;;4409302;32;20497;-75
2021/03/31 01:07:39;;;;;;;48.33;27.33;;;9.60;99.90;;;;;;4410162;32;20183;-75
2021/03/31 01:10:07;;;;;;;44.13;25.33;;;9.60;99.90;;;;;;4409567;32;20231;-76
2021/03/31 01:13:08;;;;;;;44.03;26.07;;;9.50;99.90;;;;;;4408986;32;20174;-75
2021/03/31 01:15:58;;;;;;;45.17;25.47;;;9.50;99.90;;;;;;4410588;32;20181;-76
2021/03/31 01:18:49;;;;;;;42.63;25.77;;;9.50;99.90;;;;;;4409091;32;20139;-75
2021/03/31 01:21:25;;;;;;;41.57;25.47;;;9.50;99.90;;;;;;4408547;32;20198;-76
2021/03/31 01:24:25;;;;;;;44.10;25.90;;;9.40;99.90;;;;;;4412210;32;20139;-75
2021/03/31 01:27:07;;;;;;;48.07;26.50;;;9.40;99.90;;;;;;4411666;32;20147;-75
2021/03/31 01:30:25;;;;;;;44.07;25.90;;;9.50;99.90;;;;;;4411685;32;20452;-75
2021/03/31 01:33:15;;;;;;;48.83;27.00;;;9.40;99.90;;;;;;4379790;32;20175;-75
2021/03/31 01:35:42;;;;;;;49.07;27.33;;;9.30;99.90;;;;;;4379308;32;20170;-76
2021/03/31 01:38:12;;;;;;;49.87;27.13;;;9.40;99.90;;;;;;4379239;32;20210;-76
2021/03/31 01:40:46;;;;;;;49.43;27.37;;;9.40;99.90;;;;;;4380515;32;20482;-76
2021/03/31 01:43:18;;;;;;;51.07;26.67;;;9.50;99.90;;;;;;4380390;32;20140;-75
2021/03/31 01:45:50;;;;;;;48.20;26.60;;;9.60;99.90;;;;;;4378615;32;20170;-75
2021/03/31 01:48:20;;;;;;;47.53;26.97;;;9.60;99.90;;;;;;4379490;32;20152;-75
2021/03/31 01:51:13;;;;;;;48.23;25.83;;;9.60;99.90;;;;;;4378793;32;20194;-75
2021/03/31 01:53:41;;;;;;;45.30;26.03;;;9.60;99.90;;;;;;4378071;32;20282;-75
2021/03/31 01:56:09;;;;;;;45.07;26.37;;;9.60;99.90;;;;;;4379204;32;20148;-75
2021/03/31 01:58:37;;;;;;;48.30;26.37;;;9.60;99.90;;;;;;4379013;32;20156;-75
2021/03/31 02:01:06;;;;;;;48.43;27.20;;;9.60;99.90;;;;;;4378349;32;20148;-75
2021/03/31 02:03:35;;;;;;;45.77;26.00;;;9.60;99.90;;;;;;4379039;32;20140;-75
2021/03/31 02:06:04;;;;;;;47.03;24.97;;;9.60;99.90;;;;;;4378270;32;20506;-75
2021/03/31 02:08:30;;;;;;;46.40;26.93;;;9.60;99.90;;;;;;4395593;32;20173;-75
2021/03/31 02:11:10;;;;;;;47.20;26.13;;;9.50;99.90;;;;;;4411780;32;20150;-75
2021/03/31 02:13:38;;;;;;;45.70;25.57;;;9.50;99.90;;;;;;4412421;32;20139;-75
2021/03/31 02:16:07;;;;;;;44.80;26.03;;;9.40;99.90;;;;;;4410552;32;20189;-75
2021/03/31 02:18:36;;;;;;;50.03;27.80;;;9.40;99.90;;;;;;4411085;32;20375;-75
2021/03/31 02:21:04;;;;;;;49.30;26.63;;;9.40;99.90;;;;;;4410844;32;20169;-75
2021/03/31 02:23:35;;;;;;;47.23;26.20;;;9.50;99.90;;;;;;4410473;32;20467;-75
2021/03/31 02:26:03;;;;;;;50.97;26.30;;;9.50;99.90;;;;;;4411012;32;20454;-75
2021/03/31 02:28:31;;;;;;;51.27;26.87;;;9.50;99.90;;;;;;4411303;32;20135;-75
2021/03/31 02:30:58;;;;;;;53.53;27.17;;;9.40;99.90;;;;;;4410864;32;20151;-76
2021/03/31 02:33:29;;;;;;;49.37;26.87;;;9.40;99.90;;;;;;4411469;32;20182;-75
2021/03/31 02:35:55;;;;;;;49.20;26.20;;;9.40;99.90;;;;;;4411607;32;20520;-75
2021/03/31 02:38:23;;;;;;;52.87;27.47;;;9.40;99.90;;;;;;4411228;32;20401;-75
2021/03/31 02:40:51;;;;;;;53.57;26.97;;;9.30;99.90;;;;;;4410759;32;20192;-75
2021/03/31 02:43:21;;;;;;;48.43;26.77;;;9.30;99.90;;;;;;4412147;32;20197;-75
2021/03/31 02:45:52;;;;;;;55.60;27.97;;;9.30;99.90;;;;;;4410725;32;20147;-75
2021/03/31 02:48:21;;;;;;;51.27;26.73;;;9.30;99.90;;;;;;4411184;32;20493;-75
2021/03/31 02:50:49;;;;;;;51.67;28.33;;;9.30;99.90;;;;;;4410592;32;20178;-75
2021/03/31 02:53:16;;;;;;;55.83;27.97;;;9.30;99.90;;;;;;4410487;32;20139;-75
2021/03/31 02:55:43;;;;;;;56.27;28.53;;;9.30;99.90;;;;;;4410733;32;20253;-75
2021/03/31 02:58:10;;;;;;;55.43;27.87;;;9.30;99.90;;;;;;4410137;32;20143;-76
2021/03/31 03:00:37;;;;;;;52.07;27.63;;;9.30;99.90;;;;;;4410506;32;20143;-76
2021/03/31 03:03:07;;;;;;;54.27;27.17;;;9.30;99.90;;;;;;4410549;32;20139;-76
2021/03/31 03:05:34;;;;;;;51.07;27.23;;;9.30;99.90;;;;;;4410138;32;20163;-76
2021/03/31 03:08:02;;;;;;;55.03;27.97;;;9.30;99.90;;;;;;4410336;32;20185;-75
2021/03/31 03:10:29;;;;;;;55.53;27.83;;;9.40;99.90;;;;;;4411633;32;20223;-75
2021/03/31 03:13:03;;;;;;;52.57;26.97;;;9.30;99.90;;;;;;4410031;32;20177;-75
2021/03/31 03:15:31;;;;;;;51.50;27.10;;;9.30;99.90;;;;;;4409665;32;20147;-76
2021/03/31 03:17:58;;;;;;;53.70;28.70;;;9.30;99.90;;;;;;4410815;32;20413;-75
2021/03/31 03:20:26;;;;;;;54.73;28.17;;;9.30;99.90;;;;;;4409804;32;20155;-75
2021/03/31 03:22:55;;;;;;;56.83;28.83;;;9.30;99.90;;;;;;4410034;32;20142;-75
2021/03/31 03:25:24;;;;;;;54.13;28.20;;;9.30;99.90;;;;;;4410634;32;20345;-76
2021/03/31 03:27:51;;;;;;;59.87;29.67;;;9.30;99.90;;;;;;4410012;32;20212;-76
2021/03/31 03:30:21;;;;;;;59.93;28.83;;;9.30;99.90;;;;;;4410180;32;20197;-76
2021/03/31 03:32:51;;;;;;;57.37;28.87;;;9.30;99.90;;;;;;4409976;32;20138;-75
2021/03/31 03:35:22;;;;;;;57.80;28.50;;;9.20;99.90;;;;;;4409566;32;20147;-76
2021/03/31 03:37:49;;;;;;;58.53;28.73;;;9.20;99.90;;;;;;4410002;32;20174;-76
2021/03/31 03:40:18;;;;;;;57.50;28.97;;;9.20;99.90;;;;;;4410025;32;20162;-76
2021/03/31 03:42:44;;;;;;;53.83;28.03;;;9.20;99.90;;;;;;4410012;32;20146;-76
2021/03/31 03:45:11;;;;;;;57.37;28.97;;;9.10;99.90;;;;;;4409222;32;20177;-75
2021/03/31 03:47:39;;;;;;;54.57;27.63;;;9.10;99.90;;;;;;4409503;32;20186;-75
2021/03/31 03:50:08;;;;;;;59.17;28.33;;;9.10;99.90;;;;;;4409815;32;20212;-75
2021/03/31 03:52:36;;;;;;;58.67;29.33;;;9.20;99.90;;;;;;4409242;32;20442;-75
2021/03/31 03:55:03;;;;;;;55.27;29.20;;;9.10;99.90;;;;;;4410668;32;20140;-75
2021/03/31 03:57:30;;;;;;;56.13;28.90;;;9.00;99.90;;;;;;4409250;32;20165;-75
2021/03/31 03:59:57;;;;;;;60.10;29.07;;;9.00;99.90;;;;;;4409424;32;20143;-75
2021/03/31 04:02:24;;;;;;;56.60;29.07;;;9.00;99.90;;;;;;4409802;32;20142;-75
2021/03/31 04:04:50;;;;;;;57.10;29.50;;;9.00;99.90;;;;;;4409350;32;20167;-75
2021/03/31 04:07:17;;;;;;;61.03;28.40;;;9.00;99.90;;;;;;4409841;32;20146;-75
2021/03/31 04:09:48;;;;;;;58.03;28.90;;;9.00;99.90;;;;;;4409598;32;20147;-75
2021/03/31 04:12:16;;;;;;;60.73;30.30;;;9.00;99.90;;;;;;4409040;32;20466;-75
2021/03/31 04:14:44;;;;;;;57.03;29.67;;;8.90;99.90;;;;;;4409172;32;20140;-75
2021/03/31 04:17:15;;;;;;;62.37;30.53;;;8.90;99.90;;;;;;4411146;32;20147;-75
2021/03/31 04:19:45;;;;;;;63.43;30.37;;;8.90;99.90;;;;;;4410188;32;20362;-75
2021/03/31 04:22:12;;;;;;;65.73;32.03;;;8.90;99.90;;;;;;4409280;32;20219;-75
2021/03/31 04:24:39;;;;;;;62.93;30.57;;;8.90;99.90;;;;;;4410413;32;20313;-75
2021/03/31 04:27:09;;;;;;;60.93;30.70;;;8.90;99.90;;;;;;4409273;32;20201;-75
2021/03/31 04:29:39;;;;;;;61.80;30.13;;;8.90;99.90;;;;;;4409378;32;20478;-75
2021/03/31 04:32:15;;;;;;;60.00;30.90;;;8.90;99.90;;;;;;4409916;32;20527;-75
2021/03/31 04:34:44;;;;;;;64.43;31.70;;;9.00;99.90;;;;;;4410697;32;20158;-75
2021/03/31 04:37:13;;;;;;;60.63;30.57;;;9.00;99.90;;;;;;4409698;32;20155;-75
2021/03/31 04:39:41;;;;;;;63.10;30.37;;;9.00;99.90;;;;;;4409312;32;20139;-75
2021/03/31 04:42:08;;;;;;;65.50;31.03;;;9.00;99.90;;;;;;4409713;32;20206;-75
2021/03/31 04:44:35;;;;;;;60.67;30.23;;;9.00;99.90;;;;;;4409263;32;20172;-75
2021/03/31 04:47:03;;;;;;;60.53;29.83;;;8.90;99.90;;;;;;4409523;32;20431;-75
2021/03/31 04:49:30;;;;;;;58.90;29.27;;;8.90;99.90;;;;;;4410496;32;20450;-75
2021/03/31 04:51:56;;;;;;;61.00;30.20;;;8.90;99.90;;;;;;4409058;32;20219;-75
2021/03/31 04:54:23;;;;;;;58.40;29.47;;;9.00;99.90;;;;;;4408786;32;20221;-75
2021/03/31 04:56:50;;;;;;;64.40;31.53;;;8.90;99.90;;;;;;4409631;32;20165;-75
2021/03/31 04:59:16;;;;;;;60.57;29.47;;;8.90;99.90;;;;;;4412577;32;20280;-75
2021/03/31 05:01:43;;;;;;;60.20;30.70;;;9.00;99.90;;;;;;4411704;32;20143;-75
2021/03/31 05:04:09;;;;;;;60.10;30.43;;;9.00;99.90;;;;;;4413308;32;20173;-76
2021/03/31 05:06:36;;;;;;;59.93;30.27;;;9.00;99.90;;;;;;4411822;32;20218;-75
2021/03/31 05:09:04;;;;;;;57.93;30.57;;;9.10;99.90;;;;;;4412274;32;20137;-75
2021/03/31 05:11:35;;;;;;;58.23;29.63;;;9.10;99.90;;;;;;4412110;32;20209;-75
2021/03/31 05:14:03;;;;;;;57.43;29.23;;;9.20;99.90;;;;;;4411873;32;20139;-75
2021/03/31 05:16:30;;;;;;;61.13;30.80;;;9.30;99.90;;;;;;4411812;32;20466;-75
2021/03/31 05:18:56;;;;;;;64.37;32.17;;;9.30;99.90;;;;;;4412019;32;20172;-75
2021/03/31 05:21:23;;;;;;;58.17;31.00;;;9.30;99.90;;;;;;4412002;32;20143;-75
2021/03/31 05:23:50;;;;;;;59.67;30.80;;;9.30;99.90;;;;;;4411990;32;20176;-75
2021/03/31 05:26:17;;;;;;;52.83;28.97;;;9.40;99.90;;;;;;4411296;32;20458;-77
2021/03/31 05:28:44;;;;;;;58.47;30.13;;;9.40;99.90;;;;;;4410705;32;20190;-76
2021/03/31 05:31:11;;;;;;;59.17;30.50;;;9.30;99.90;;;;;;4411554;32;20166;-75
2021/03/31 05:33:37;;;;;;;60.43;30.20;;;9.40;99.90;;;;;;4412004;32;20497;-75
2021/03/31 05:36:05;;;;;;;57.30;29.77;;;9.40;99.90;;;;;;4411986;32;20147;-76
2021/03/31 05:38:32;;;;;;;59.30;30.70;;;9.50;99.90;;;;;;4411631;32;20208;-75
2021/03/31 05:40:59;;;;;;;60.20;31.10;;;9.50;99.90;;;;;;4411261;32;20166;-76
2021/03/31 05:43:26;;;;;;;61.50;31.80;;;9.50;99.90;;;;;;4411148;32;20162;-75
2021/03/31 05:45:54;;;;;;;59.93;31.50;;;9.60;99.90;;;;;;4410606;32;20414;-75
2021/03/31 05:48:22;;;;;;;62.10;32.23;;;9.60;99.90;;;;;;4411572;32;20142;-75
2021/03/31 05:50:49;;;;;;;61.50;32.87;;;9.70;99.90;;;;;;4411467;32;20232;-75
2021/03/31 05:53:16;;;;;;;60.47;32.63;;;9.80;99.90;;;;;;4411483;32;20159;-75
2021/03/31 05:55:43;;;;;;;63.60;32.33;;;9.80;99.90;;;;;;4408550;32;20206;-75
2021/03/31 05:58:11;;;;;;;58.27;32.30;;;9.80;99.90;;;;;;4407820;32;20526;-73
2021/03/31 06:00:38;;;;;;;59.50;31.77;;;9.90;99.90;;;;;;4408348;32;20221;-73
2021/03/31 06:03:06;;;;;;;60.63;32.70;;;9.90;99.90;;;;;;4405946;32;20225;-73
2021/03/31 06:05:33;;;;;;;62.13;31.33;;;10.00;99.90;;;;;;4410576;32;20201;-73
2021/03/31 06:08:03;;;;;;;55.40;30.90;;;10.00;99.90;;;;;;4410695;32;20478;-72
2021/03/31 06:10:30;;;;;;;55.10;31.43;;;10.10;99.90;;;;;;4411840;32;20528;-72
2021/03/31 06:13:03;;;;;;;61.83;31.00;;;10.20;99.90;;;;;;4412457;32;20167;-73
2021/03/31 06:15:43;;;;;;;56.47;31.20;;;10.30;99.90;;;;;;4411752;32;20151;-72
2021/03/31 06:18:15;;;;;;;61.20;32.60;;;10.40;99.90;;;;;;4411985;32;20181;-73
2021/03/31 06:20:44;;;;;;;56.70;31.43;;;10.40;99.90;;;;;;4411374;32;20182;-73
2021/03/31 06:26:05;;;;;;;56.20;32.20;;;10.60;99.90;;;;;;4397634;32;20503;-72
2021/03/31 06:28:32;;;;;;;59.50;32.63;;;10.80;99.90;;;;;;4412370;32;20188;-73
2021/03/31 06:31:19;;;;;;;62.53;33.43;;;10.80;99.90;;;;;;4411442;32;20146;-73
2021/03/31 06:33:47;;;;;;;59.77;33.20;;;10.80;99.90;;;;;;4411107;32;20151;-73
2021/03/31 06:36:16;;;;;;;60.07;32.93;;;11.00;99.90;;;;;;4410672;32;20219;-73
2021/03/31 06:38:49;;;;;;;57.20;33.00;;;11.10;99.90;;;;;;4412220;32;20143;-73
2021/03/31 06:41:37;;;;;;;59.73;32.63;;;11.10;99.90;;;;;;4412159;32;20139;-73
2021/03/31 06:44:17;;;;;;;62.83;33.00;;;11.30;99.90;;;;;;4410853;32;20439;-73
2021/03/31 06:47:07;;;;;;;57.13;32.20;;;11.40;99.90;;;;;;4411258;32;20163;-73
2021/03/31 06:49:32;;;;;;;56.60;32.50;;;11.50;99.90;;;;;;4411908;32;20241;-73
2021/03/31 06:52:04;;;;;;;62.20;32.93;;;11.70;99.90;;;;;;4411249;32;20185;-73
2021/03/31 06:54:49;;;;;;;55.30;32.20;;;11.80;99.90;;;;;;4410227;32;20159;-73
2021/03/31 06:57:33;;;;;;;55.77;32.40;;;12.00;99.90;;;;;;4410769;32;20182;-73
2021/03/31 07:00:08;;;;;;;59.47;34.03;;;12.10;99.90;;;;;;4410588;32;20158;-73
2021/03/31 07:02:37;;;;;;;56.50;32.80;;;12.20;99.90;;;;;;4410408;32;20225;-73
2021/03/31 07:05:05;;;;;;;57.90;32.60;;;12.40;99.90;;;;;;4410196;32;20498;-73
2021/03/31 07:07:37;;;;;;;56.77;32.60;;;12.60;99.90;;;;;;4410282;32;20132;-73
2021/03/31 07:10:06;;;;;;;53.30;30.73;;;12.80;99.90;;;;;;4411569;32;20375;-73
2021/03/31 07:12:47;;;;;;;54.77;31.53;;;12.80;99.90;;;;;;4409305;32;20146;-74
2021/03/31 07:15:16;;;;;;;50.97;30.90;;;12.90;99.90;;;;;;4410453;32;20139;-73
2021/03/31 07:17:55;;;;;;;53.27;31.03;;;13.00;99.90;;;;;;4411595;32;20208;-72
2021/03/31 07:20:26;;;;;;;58.13;30.80;;;13.20;99.90;;;;;;4411595;32;20225;-72
2021/03/31 07:22:53;;;;;;;52.20;30.73;;;13.30;99.90;;;;;;4410342;32;20184;-72
2021/03/31 07:25:22;;;;;;;52.67;29.87;;;13.40;99.90;;;;;;4410346;32;20469;-73
2021/03/31 07:27:51;;;;;;;49.20;29.20;;;13.60;99.90;;;;;;4410144;32;20471;-73
2021/03/31 07:30:22;;;;;;;48.57;29.53;;;13.70;99.90;;;;;;4409948;32;20135;-73
2021/03/31 07:33:17;;;;;;;50.23;29.03;;;13.80;99.90;;;;;;4409572;32;20155;-72
2021/03/31 07:35:45;;;;;;;48.63;29.20;;;13.80;99.90;;;;;;4410359;32;20139;-72
2021/03/31 07:38:16;;;;;;;51.03;29.17;;;14.00;99.90;;;;;;4410005;32;20136;-73
2021/03/31 07:40:44;;;;;;;47.33;27.73;;;14.00;99.90;;;;;;4409846;32;20143;-72
2021/03/31 07:43:37;;;;;;;49.30;28.63;;;14.10;99.90;;;;;;4411250;32;20165;-71
2021/03/31 07:46:10;;;;;;;48.10;27.80;;;14.10;99.90;;;;;;4409826;32;20445;-71
2021/03/31 07:48:38;;;;;;;45.63;26.13;;;14.30;99.90;;;;;;4411248;32;20147;-72
2021/03/31 07:51:29;;;;;;;46.30;26.60;;;14.20;99.90;;;;;;4409458;32;20277;-72
2021/03/31 07:53:57;;;;;;;43.93;26.17;;;14.30;99.90;;;;;;4411097;32;20190;-72
2021/03/31 07:56:31;;;;;;;47.43;27.00;;;14.30;99.90;;;;;;4409811;32;20181;-73
2021/03/31 07:59:19;;;;;;;49.60;28.87;;;14.30;99.90;;;;;;4410962;32;20165;-72
2021/03/31 08:02:01;;;;;;;51.33;28.33;;;14.60;99.90;;;;;;4410051;32;20141;-73
2021/03/31 08:04:43;;;;;;;48.33;27.63;;;14.50;99.90;;;;;;4408983;32;20208;-73
2021/03/31 08:07:23;;;;;;;50.93;28.90;;;14.60;99.90;;;;;;4408957;32;20231;-73
2021/03/31 08:10:32;;;;;;;48.33;26.10;;;14.80;99.90;;;;;;4411235;32;20449;-72
2021/03/31 08:13:32;;;;;;;42.43;24.43;;;14.90;99.90;;;;;;4409450;32;20205;-72
2021/03/31 08:16:48;;;;;;;42.97;24.40;;;15.20;99.90;;;;;;4410642;32;20134;-71
2021/03/31 08:19:32;;;;;;;39.20;23.63;;;15.20;99.90;;;;;;4407085;32;20405;-72
2021/03/31 08:22:35;;;;;;;34.73;20.60;;;15.20;99.90;;;;;;4406578;32;20166;-72
2021/03/31 08:25:17;;;;;;;37.73;20.73;;;15.40;99.90;;;;;;4402870;32;20198;-72
2021/03/31 08:27:56;;;;;;;32.87;20.07;;;15.50;99.90;;;;;;4406716;32;20214;-74
2021/03/31 08:30:34;;;;;;;37.80;22.00;;;15.70;99.90;;;;;;4406746;32;20151;-72
2021/03/31 08:33:10;;;;;;;35.70;21.00;;;16.00;99.90;;;;;;4407800;32;20209;-71
2021/03/31 08:35:42;;;;;;;35.37;20.73;;;16.30;99.90;;;;;;4407353;32;20418;-73
2021/03/31 08:38:28;;;;;;;35.33;21.03;;;16.80;99.90;;;;;;4408039;32;20259;-72
2021/03/31 08:41:14;;;;;;;35.40;20.27;;;17.10;99.90;;;;;;4407086;32;20155;-72
2021/03/31 08:43:50;;;;;;;31.50;18.63;;;17.00;99.90;;;;;;4394583;32;20290;-72
2021/03/31 08:46:31;;;;;;;28.93;16.40;;;16.80;99.70;;;;;;4391542;32;20169;-72
2021/03/31 08:48:57;;;;;;;31.07;17.53;;;16.80;98.40;;;;;;4391923;32;20159;-72
2021/03/31 08:51:28;;;;;;;30.37;16.00;;;17.00;98.60;;;;;;4391219;32;20155;-72
2021/03/31 08:54:04;;;;;;;27.20;15.70;;;17.10;97.30;;;;;;4395858;32;20155;-76
2021/03/31 08:56:30;;;;;;;26.90;15.27;;;17.20;96.30;;;;;;4408979;32;20154;-72
2021/03/31 08:58:57;;;;;;;23.07;14.13;;;17.50;94.30;;;;;;4410463;32;20374;-72
2021/03/31 09:01:37;;;;;;;27.53;14.20;;;17.60;93.80;;;;;;4409661;32;20162;-72
2021/03/31 09:04:19;;;;;;;27.70;15.13;;;18.00;92.70;;;;;;4409557;32;20180;-72
2021/03/31 09:06:45;;;;;;;24.97;15.03;;;18.30;91.30;;;;;;4410270;32;20170;-73
2021/03/31 09:09:13;;;;;;;26.67;14.67;;;18.80;89.40;;;;;;4408820;32;20222;-73
2021/03/31 09:11:39;;;;;;;24.87;13.83;;;19.00;87.20;;;;;;4408719;32;20186;-73
2021/03/31 09:14:16;;;;;;;21.87;13.00;;;19.20;85.90;;;;;;4410295;32;20177;-72
2021/03/31 09:17:10;;;;;;;25.20;13.93;;;19.30;82.10;;;;;;4408814;32;20196;-72
2021/03/31 09:19:39;;;;;;;21.93;12.60;;;19.10;82.70;;;;;;4410425;32;20261;-72
2021/03/31 09:22:12;;;;;;;22.33;12.63;;;19.40;81.90;;;;;;4409711;32;20193;-72
2021/03/31 09:24:50;;;;;;;22.00;12.87;;;20.00;81.00;;;;;;4410326;32;20270;-72
2021/03/31 09:27:23;;;;;;;20.73;12.50;;;20.00;77.80;;;;;;4409686;32;20434;-72
2021/03/31 09:29:54;;;;;;;20.93;12.23;;;20.30;75.60;;;;;;4410522;32;20170;-73
2021/03/31 09:32:26;;;;;;;20.70;12.17;;;20.80;74.80;;;;;;4410518;32;20175;-70
2021/03/31 09:34:54;;;;;;;19.13;11.00;;;21.20;70.90;;;;;;4408753;32;20135;-71
2021/03/31 09:37:21;;;;;;;16.50;10.30;;;21.20;70.50;;;;;;4409839;32;20139;-71
2021/03/31 09:39:57;;;;;;;14.33;9.23;;;21.30;67.70;;;;;;4407922;32;20189;-71
2021/03/31 09:42:33;;;;;;;17.07;9.47;;;21.50;66.90;;;;;;4409082;32;20139;-72
2021/03/31 09:45:01;;;;;;;17.43;9.90;;;21.70;66.30;;;;;;4410780;32;20200;-71
2021/03/31 09:47:33;;;;;;;18.07;9.70;;;22.10;63.80;;;;;;4410937;32;20205;-73
2021/03/31 09:50:05;;;;;;;15.37;8.00;;;22.20;64.60;;;;;;4411472;32;20188;-71
2021/03/31 09:52:32;;;;;;;11.87;8.07;;;22.60;61.30;;;;;;4410561;32;20210;-73
2021/03/31 09:55:17;;;;;;;15.73;7.97;;;22.70;61.90;;;;;;4395764;32;20144;-72
2021/03/31 09:57:50;;;;;;;14.03;7.93;;;23.20;60.50;;;;;;4397500;32;20135;-72
2021/03/31 10:00:18;;;;;;;18.50;8.77;;;23.10;58.30;;;;;;4395521;32;20434;-72
2021/03/31 10:02:46;;;;;;;12.17;8.50;;;22.70;58.60;;;;;;4397243;32;20136;-72
2021/03/31 10:05:25;;;;;;;13.17;7.43;;;22.70;59.70;;;;;;4395628;32;20190;-72
2021/03/31 10:07:59;;;;;;;15.13;7.97;;;22.90;59.30;;;;;;4397499;32;20143;-70
2021/03/31 10:10:49;;;;;;;13.17;7.43;;;22.20;60.00;;;;;;4395065;32;20134;-71
2021/03/31 10:13:36;;;;;;;11.30;7.30;;;22.30;59.70;;;;;;4396724;32;20148;-71
2021/03/31 10:16:06;;;;;;;10.60;6.90;;;22.50;60.00;;;;;;4397150;32;20139;-70
2021/03/31 10:18:33;;;;;;;13.13;7.60;;;23.10;58.70;;;;;;4395326;32;20163;-68
2021/03/31 10:21:02;;;;;;;12.37;6.90;;;23.60;58.10;;;;;;4395772;32;20166;-69
2021/03/31 10:23:37;;;;;;;9.43;6.37;;;23.80;56.70;;;;;;4397172;32;20147;-70
2021/03/31 10:26:27;;;;;;;13.63;7.13;;;23.90;55.80;;;;;;4395969;32;20226;-69
2021/03/31 10:28:56;;;;;;;11.73;5.83;;;23.60;56.10;;;;;;4397585;32;20139;-69
2021/03/31 10:31:45;;;;;;;11.60;6.23;;;24.10;56.10;;;;;;4395229;32;20155;-70
2021/03/31 10:34:14;;;;;;;11.60;6.43;;;24.00;55.90;;;;;;4396699;32;20148;-70
2021/03/31 10:53:37;;;;;;;13.77;7.20;;;25.20;54.30;;;;;;4397141;32;20191;-70
2021/03/31 10:56:05;;;;;;;10.82;6.45;;;24.10;55.70;;;;;;4396246;32;20164;-70
2021/03/31 10:58:31;;;;;;;11.05;6.55;;;24.90;54.20;;;;;;4395463;32;20182;-70
2021/03/31 11:00:58;;;;;;;10.32;6.22;;;24.80;53.30;;;;;;4394715;32;20478;-71
2021/03/31 11:03:25;;;;;;;11.45;6.78;;;24.80;54.60;;;;;;4396136;32;20131;-70
2021/03/31 11:05:53;;;;;;;10.60;6.32;;;25.40;53.40;;;;;;4395763;32;20170;-72
2021/03/31 11:08:21;;;;;;;9.60;6.05;;;26.20;51.10;;;;;;4395488;32;20189;-72
2021/03/31 11:10:49;;;;;;;10.60;6.30;;;26.60;50.90;;;;;;4396566;32;20182;-72
2021/03/31 11:13:16;;;;;;;9.50;6.68;;;26.00;50.20;;;;;;4396031;32;20477;-69
2021/03/31 11:15:42;;;;;;;13.23;6.90;;;25.70;51.20;;;;;;4395777;32;20249;-70
2021/03/31 11:18:59;;;;;;;10.90;7.10;;;25.90;51.20;;;;;;4394938;32;20132;-70
2021/03/31 11:26:09;;;;;;;9.60;6.40;;;25.50;51.80;;;;;;4396604;32;20171;-71
2021/03/31 11:28:36;;;;;;;12.75;6.60;;;25.80;51.80;;;;;;4396196;32;20162;-71
2021/03/31 11:31:05;;;;;;;12.90;7.10;;;26.60;50.20;;;;;;4394791;32;20152;-71
2021/03/31 11:33:31;;;;;;;11.75;8.05;;;26.80;50.00;;;;;;4395877;32;20504;-70
2021/03/31 11:35:58;;;;;;;10.82;6.47;;;27.10;49.10;;;;;;4395120;32;20189;-70
2021/03/31 11:38:24;;;;;;;11.23;6.85;;;28.00;48.40;;;;;;4396100;32;20140;-70
2021/03/31 11:40:51;;;;;;;11.25;7.62;;;28.90;46.00;;;;;;4395567;32;20127;-70
2021/03/31 11:43:19;;;;;;;9.15;6.50;;;28.40;44.20;;;;;;4396185;32;20231;-70
2021/03/31 11:45:49;;;;;;;10.20;6.72;;;29.20;43.50;;;;;;4394658;32;20178;-71
2021/03/31 11:48:16;;;;;;;12.18;6.62;;;30.50;41.30;;;;;;4394704;32;20135;-71
2021/03/31 11:50:43;;;;;;;12.45;7.70;;;29.70;39.90;;;;;;4394533;32;20162;-71
2021/03/31 11:53:10;;;;;;;11.05;6.97;;;29.70;41.20;;;;;;4395258;32;20500;-69
2021/03/31 11:55:36;;;;;;;10.15;7.60;;;30.10;40.30;;;;;;4393524;32;20473;-71
2021/03/31 11:58:03;;;;;;;9.35;7.20;;;29.90;41.20;;;;;;4394455;32;20144;-71
2021/03/31 12:00:30;;;;;;;9.98;6.35;;;29.20;40.00;;;;;;4395807;32;20570;-71
2021/03/31 12:02:56;;;;;;;7.32;4.93;;;28.70;41.60;;;;;;4394520;32;20438;-71
2021/03/31 12:05:23;;;;;;;7.65;5.10;;;27.90;38.60;;;;;;4395021;32;20151;-70
2021/03/31 12:07:50;;;;;;;9.85;5.95;;;27.20;40.40;;;;;;4394667;32;20171;-71
2021/03/31 12:10:16;;;;;;;12.10;6.90;;;28.40;41.30;;;;;;4395778;32;20143;-71
2021/03/31 12:12:43;;;;;;;9.63;6.70;;;27.70;43.50;;;;;;4395729;32;20159;-70
2021/03/31 12:15:12;;;;;;;10.70;6.55;;;28.50;41.80;;;;;;4393674;32;20219;-70
2021/03/31 12:17:40;;;;;;;11.27;6.78;;;29.20;41.70;;;;;;4395760;32;20230;-70
2021/03/31 12:20:15;;;;;;;11.63;6.57;;;28.30;41.10;;;;;;4394178;32;20182;-70
2021/03/31 12:22:43;;;;;;;13.90;8.40;;;28.50;42.50;;;;;;4395749;32;20135;-72
2021/03/31 12:25:11;;;;;;;13.07;7.87;;;27.90;43.40;;;;;;4394397;32;20217;-72
2021/03/31 12:27:39;;;;;;;17.40;8.35;;;27.20;44.90;;;;;;4393977;32;20158;-70
2021/03/31 12:30:11;;;;;;;13.18;8.18;;;27.70;44.90;;;;;;4397689;32;20166;-70
2021/03/31 12:32:39;;;;;;;12.52;8.48;;;27.80;44.50;;;;;;4406849;32;20538;-71
2021/03/31 12:35:06;;;;;;;12.23;7.87;;;26.90;45.40;;;;;;4405170;32;20186;-70
2021/03/31 12:37:33;;;;;;;11.95;7.65;;;27.50;44.80;;;;;;4407101;32;20147;-70
2021/03/31 12:39:59;;;;;;;10.15;7.15;;;27.40;41.80;;;;;;4408452;32;20175;-69
2021/03/31 12:42:26;;;;;;;10.57;6.72;;;27.60;39.80;;;;;;4409564;32;20154;-69
2021/03/31 12:44:53;;;;;;;11.85;6.95;;;27.70;39.80;;;;;;4408359;32;20341;-69
2021/03/31 12:47:21;;;;;;;12.20;7.45;;;27.40;41.20;;;;;;4409812;32;20151;-69
2021/03/31 12:49:50;;;;;;;13.43;8.60;;;27.80;42.20;;;;;;4408190;32;20572;-70
2021/03/31 12:52:24;;;;;;;12.52;8.60;;;27.30;43.00;;;;;;4407030;32;20234;-70
2021/03/31 12:57:17;;;;;;;13.50;8.65;;;27.50;44.30;;;;;;4408785;32;20150;-69
2021/03/31 12:59:46;;;;;;;12.98;7.97;;;27.60;41.80;;;;;;4408448;32;20144;-68
2021/03/31 13:02:32;;;;;;;12.43;8.32;;;28.80;41.40;;;;;;4409095;32;20184;-69
2021/03/31 13:05:18;;;;;;;11.15;6.97;;;28.80;39.40;;;;;;4399027;32;20155;-70
2021/03/31 13:07:45;;;;;;;11.07;7.10;;;29.10;40.50;;;;;;4409538;32;20151;-69
2021/03/31 13:10:32;;;;;;;13.98;8.05;;;30.00;39.10;;;;;;4407048;32;20226;-70
2021/03/31 13:16:14;;;;;;;9.85;6.97;;;28.30;40.00;;;;;;4406637;32;20159;-70
2021/03/31 13:22:08;;;;;;;10.77;7.43;;;28.90;40.00;;;;;;4411561;32;20147;-69
2021/03/31 13:32:46;;;;;;;13.80;7.32;;;29.50;40.20;;;;;;4401652;32;20236;-69
2021/03/31 13:37:49;;;;;;;10.43;6.45;;;29.30;38.50;;;;;;4412440;32;20151;-69
2021/03/31 13:40:16;;;;;;;12.15;6.50;;;29.40;39.10;;;;;;4412200;32;20151;-69
2021/03/31 13:42:43;;;;;;;11.27;5.35;;;28.60;38.60;;;;;;4411740;32;20264;-68